sensor_id;sensor_type;location;lat;lon;timestamp;P1;durP1;ratioP1;P2;durP2;ratioP2
2622;SDS011;1321;48.690;9.022;2022-10-16T00:01:03;9.60;;;9.30;;
2622;SDS011;1321;48.690;9.022;2022-10-16T00:03:33;9.43;;;9.23;;
2622;SDS011;1321;48.690;9.022;2022-10-16T00:06:01;9.63;;;9.40;;
2622;SDS011;1321;48.690;9.022;2022-10-16T00:08:30;9.10;;;8.90;;
2622;SDS011;1321;48.690;9.022;2022-10-16T00:10:59;10.13;;;9.70;;
2622;SDS011;1321;48.690;9.022;2022-10-16T00:13:28;9.60;;;9.30;;
2622;SDS011;1321;48.690;9.022;2022-10-16T00:15:56;9.67;;;9.47;;
2622;SDS011;1321;48.690;9.022;2022-10-16T00:18:26;10.50;;;10.10;;
2622;SDS011;1321;48.690;9.022;2022-10-16T00:20:55;10.53;;;10.00;;
2622;SDS011;1321;48.690;9.022;2022-10-16T00:23:28;9.97;;;9.67;;
2622;SDS011;1321;48.690;9.022;2022-10-16T00:25:56;9.90;;;9.70;;
2622;SDS011;1321;48.690;9.022;2022-10-16T00:28:26;11.00;;;10.53;;
2622;SDS011;1321;48.690;9.022;2022-10-16T00:30:54;10.33;;;10.03;;
2622;SDS011;1321;48.690;9.022;2022-10-16T00:33:24;10.00;;;9.60;;
2622;SDS011;1321;48.690;9.022;2022-10-16T00:35:53;10.03;;;9.80;;
2622;SDS011;1321;48.690;9.022;2022-10-16T00:38:21;9.57;;;9.20;;
2622;SDS011;1321;48.690;9.022;2022-10-16T00:40:49;9.60;;;9.30;;
2622;SDS011;1321;48.690;9.022;2022-10-16T00:43:32;9.80;;;9.40;;
2622;SDS011;1321;48.690;9.022;2022-10-16T00:46:08;9.90;;;9.67;;
2622;SDS011;1321;48.690;9.022;2022-10-16T00:48:42;9.77;;;9.57;;
2622;SDS011;1321;48.690;9.022;2022-10-16T00:51:13;10.27;;;10.07;;
2622;SDS011;1321;48.690;9.022;2022-10-16T00:53:41;9.40;;;9.10;;
2622;SDS011;1321;48.690;9.022;2022-10-16T00:56:11;9.57;;;9.27;;
2622;SDS011;1321;48.690;9.022;2022-10-16T00:58:39;9.60;;;9.30;;
2622;SDS011;1321;48.690;9.022;2022-10-16T01:01:07;10.17;;;9.27;;
2622;SDS011;1321;48.690;9.022;2022-10-16T01:03:36;8.90;;;8.70;;
2622;SDS011;1321;48.690;9.022;2022-10-16T01:06:21;9.40;;;9.20;;
2622;SDS011;1321;48.690;9.022;2022-10-16T01:09:02;9.80;;;9.50;;
2622;SDS011;1321;48.690;9.022;2022-10-16T01:11:41;9.80;;;9.37;;
2622;SDS011;1321;48.690;9.022;2022-10-16T01:14:19;9.20;;;9.00;;
2622;SDS011;1321;48.690;9.022;2022-10-16T01:16:52;10.00;;;9.40;;
2622;SDS011;1321;48.690;9.022;2022-10-16T01:19:34;8.70;;;8.50;;
2622;SDS011;1321;48.690;9.022;2022-10-16T01:22:12;9.23;;;9.03;;
2622;SDS011;1321;48.690;9.022;2022-10-16T01:24:43;8.80;;;8.60;;
2622;SDS011;1321;48.690;9.022;2022-10-16T01:27:17;8.93;;;8.70;;
2622;SDS011;1321;48.690;9.022;2022-10-16T01:29:53;9.87;;;9.57;;
2622;SDS011;1321;48.690;9.022;2022-10-16T01:32:28;8.87;;;8.67;;
2622;SDS011;1321;48.690;9.022;2022-10-16T01:35:02;9.47;;;9.17;;
2622;SDS011;1321;48.690;9.022;2022-10-16T01:37:37;8.90;;;8.60;;
2622;SDS011;1321;48.690;9.022;2022-10-16T01:40:09;9.23;;;8.70;;
2622;SDS011;1321;48.690;9.022;2022-10-16T01:42:41;8.70;;;8.50;;
2622;SDS011;1321;48.690;9.022;2022-10-16T01:45:12;8.50;;;8.20;;
2622;SDS011;1321;48.690;9.022;2022-10-16T01:47:44;8.63;;;8.27;;
2622;SDS011;1321;48.690;9.022;2022-10-16T01:50:14;8.80;;;8.50;;
2622;SDS011;1321;48.690;9.022;2022-10-16T01:52:45;8.87;;;8.57;;
2622;SDS011;1321;48.690;9.022;2022-10-16T01:55:17;8.93;;;8.63;;
2622;SDS011;1321;48.690;9.022;2022-10-16T01:57:51;8.77;;;8.57;;
2622;SDS011;1321;48.690;9.022;2022-10-16T02:00:20;9.20;;;8.60;;
2622;SDS011;1321;48.690;9.022;2022-10-16T02:02:50;9.10;;;8.70;;
2622;SDS011;1321;48.690;9.022;2022-10-16T02:05:22;8.40;;;8.20;;
2622;SDS011;1321;48.690;9.022;2022-10-16T02:07:53;8.40;;;8.20;;
2622;SDS011;1321;48.690;9.022;2022-10-16T02:10:25;8.93;;;8.70;;
2622;SDS011;1321;48.690;9.022;2022-10-16T02:13:01;8.50;;;8.33;;
2622;SDS011;1321;48.690;9.022;2022-10-16T02:15:32;8.00;;;7.77;;
2622;SDS011;1321;48.690;9.022;2022-10-16T02:18:01;9.37;;;9.07;;
2622;SDS011;1321;48.690;9.022;2022-10-16T02:20:30;8.53;;;8.13;;
2622;SDS011;1321;48.690;9.022;2022-10-16T02:23:03;9.00;;;8.50;;
2622;SDS011;1321;48.690;9.022;2022-10-16T02:25:35;8.97;;;8.57;;
2622;SDS011;1321;48.690;9.022;2022-10-16T02:28:09;8.50;;;8.30;;
2622;SDS011;1321;48.690;9.022;2022-10-16T02:30:41;8.80;;;8.33;;
2622;SDS011;1321;48.690;9.022;2022-10-16T02:33:13;8.70;;;8.40;;
2622;SDS011;1321;48.690;9.022;2022-10-16T02:35:43;8.37;;;8.17;;
2622;SDS011;1321;48.690;9.022;2022-10-16T02:38:14;8.50;;;8.20;;
2622;SDS011;1321;48.690;9.022;2022-10-16T02:40:43;8.53;;;8.13;;
2622;SDS011;1321;48.690;9.022;2022-10-16T02:43:14;8.80;;;8.30;;
2622;SDS011;1321;48.690;9.022;2022-10-16T02:45:43;8.80;;;8.00;;
2622;SDS011;1321;48.690;9.022;2022-10-16T02:48:11;8.60;;;8.33;;
2622;SDS011;1321;48.690;9.022;2022-10-16T02:50:39;8.30;;;8.00;;
2622;SDS011;1321;48.690;9.022;2022-10-16T02:53:07;8.33;;;8.13;;
2622;SDS011;1321;48.690;9.022;2022-10-16T02:55:35;8.33;;;8.10;;
2622;SDS011;1321;48.690;9.022;2022-10-16T02:58:03;8.60;;;8.27;;
2622;SDS011;1321;48.690;9.022;2022-10-16T03:00:33;8.70;;;8.50;;
2622;SDS011;1321;48.690;9.022;2022-10-16T03:03:01;8.43;;;8.03;;
2622;SDS011;1321;48.690;9.022;2022-10-16T03:05:29;9.07;;;8.67;;
2622;SDS011;1321;48.690;9.022;2022-10-16T03:07:57;8.17;;;7.97;;
2622;SDS011;1321;48.690;9.022;2022-10-16T03:10:26;8.50;;;8.20;;
2622;SDS011;1321;48.690;9.022;2022-10-16T03:12:54;8.47;;;8.20;;
2622;SDS011;1321;48.690;9.022;2022-10-16T03:15:22;7.90;;;7.80;;
2622;SDS011;1321;48.690;9.022;2022-10-16T03:17:52;8.77;;;8.47;;
2622;SDS011;1321;48.690;9.022;2022-10-16T03:20:20;8.50;;;8.20;;
2622;SDS011;1321;48.690;9.022;2022-10-16T03:22:48;8.13;;;7.93;;
2622;SDS011;1321;48.690;9.022;2022-10-16T03:25:16;8.77;;;8.20;;
2622;SDS011;1321;48.690;9.022;2022-10-16T03:27:44;8.47;;;8.07;;
2622;SDS011;1321;48.690;9.022;2022-10-16T03:30:12;8.63;;;8.17;;
2622;SDS011;1321;48.690;9.022;2022-10-16T03:32:40;8.27;;;8.07;;
2622;SDS011;1321;48.690;9.022;2022-10-16T03:35:09;8.73;;;8.40;;
2622;SDS011;1321;48.690;9.022;2022-10-16T03:37:37;8.20;;;7.70;;
2622;SDS011;1321;48.690;9.022;2022-10-16T03:40:06;8.00;;;7.80;;
2622;SDS011;1321;48.690;9.022;2022-10-16T03:42:34;8.03;;;7.83;;
2622;SDS011;1321;48.690;9.022;2022-10-16T03:45:03;8.00;;;7.70;;
2622;SDS011;1321;48.690;9.022;2022-10-16T03:47:31;8.33;;;8.03;;
2622;SDS011;1321;48.690;9.022;2022-10-16T03:49:59;8.10;;;7.90;;
2622;SDS011;1321;48.690;9.022;2022-10-16T03:52:29;8.40;;;8.10;;
2622;SDS011;1321;48.690;9.022;2022-10-16T03:54:58;8.27;;;8.07;;
2622;SDS011;1321;48.690;9.022;2022-10-16T03:57:26;8.83;;;8.43;;
2622;SDS011;1321;48.690;9.022;2022-10-16T03:59:55;8.87;;;8.50;;
2622;SDS011;1321;48.690;9.022;2022-10-16T04:02:23;7.97;;;7.73;;
2622;SDS011;1321;48.690;9.022;2022-10-16T04:04:51;7.77;;;7.57;;
2622;SDS011;1321;48.690;9.022;2022-10-16T04:07:19;8.50;;;8.10;;
2622;SDS011;1321;48.690;9.022;2022-10-16T04:09:49;8.23;;;8.03;;
2622;SDS011;1321;48.690;9.022;2022-10-16T04:12:18;8.20;;;7.93;;
2622;SDS011;1321;48.690;9.022;2022-10-16T04:14:46;8.47;;;7.90;;
2622;SDS011;1321;48.690;9.022;2022-10-16T04:17:14;9.37;;;8.97;;
2622;SDS011;1321;48.690;9.022;2022-10-16T04:19:42;8.67;;;8.27;;
2622;SDS011;1321;48.690;9.022;2022-10-16T04:22:10;8.43;;;7.83;;
2622;SDS011;1321;48.690;9.022;2022-10-16T04:24:38;7.80;;;7.60;;
2622;SDS011;1321;48.690;9.022;2022-10-16T04:27:08;8.20;;;7.90;;
2622;SDS011;1321;48.690;9.022;2022-10-16T04:29:36;7.83;;;7.63;;
2622;SDS011;1321;48.690;9.022;2022-10-16T04:32:04;8.03;;;7.63;;
2622;SDS011;1321;48.690;9.022;2022-10-16T04:34:32;7.63;;;7.40;;
2622;SDS011;1321;48.690;9.022;2022-10-16T04:37:00;8.23;;;7.87;;
2622;SDS011;1321;48.690;9.022;2022-10-16T04:39:28;7.77;;;7.60;;
2622;SDS011;1321;48.690;9.022;2022-10-16T04:41:56;7.73;;;7.40;;
2622;SDS011;1321;48.690;9.022;2022-10-16T04:44:26;7.70;;;7.50;;
2622;SDS011;1321;48.690;9.022;2022-10-16T04:46:54;7.90;;;7.70;;
2622;SDS011;1321;48.690;9.022;2022-10-16T04:49:22;8.30;;;8.00;;
2622;SDS011;1321;48.690;9.022;2022-10-16T04:51:50;7.80;;;7.70;;
2622;SDS011;1321;48.690;9.022;2022-10-16T04:54:18;7.97;;;7.77;;
2622;SDS011;1321;48.690;9.022;2022-10-16T04:56:46;8.37;;;8.07;;
2622;SDS011;1321;48.690;9.022;2022-10-16T04:59:16;8.50;;;8.23;;
2622;SDS011;1321;48.690;9.022;2022-10-16T05:01:46;8.00;;;7.80;;
2622;SDS011;1321;48.690;9.022;2022-10-16T05:04:14;7.97;;;7.77;;
2622;SDS011;1321;48.690;9.022;2022-10-16T05:06:42;8.10;;;8.00;;
2622;SDS011;1321;48.690;9.022;2022-10-16T05:09:10;8.70;;;8.40;;
2622;SDS011;1321;48.690;9.022;2022-10-16T05:11:38;8.47;;;8.27;;
2622;SDS011;1321;48.690;9.022;2022-10-16T05:14:06;8.57;;;8.37;;
2622;SDS011;1321;48.690;9.022;2022-10-16T05:16:34;8.47;;;8.27;;
2622;SDS011;1321;48.690;9.022;2022-10-16T05:19:04;9.07;;;8.67;;
2622;SDS011;1321;48.690;9.022;2022-10-16T05:21:52;8.27;;;7.90;;
2622;SDS011;1321;48.690;9.022;2022-10-16T05:24:20;8.70;;;8.23;;
2622;SDS011;1321;48.690;9.022;2022-10-16T05:26:48;8.43;;;8.13;;
2622;SDS011;1321;48.690;9.022;2022-10-16T05:29:16;8.10;;;7.80;;
2622;SDS011;1321;48.690;9.022;2022-10-16T05:31:45;8.47;;;8.17;;
2622;SDS011;1321;48.690;9.022;2022-10-16T05:34:14;8.30;;;8.07;;
2622;SDS011;1321;48.690;9.022;2022-10-16T05:36:42;8.17;;;7.77;;
2622;SDS011;1321;48.690;9.022;2022-10-16T05:39:11;8.23;;;8.03;;
2622;SDS011;1321;48.690;9.022;2022-10-16T05:41:40;8.40;;;8.20;;
2622;SDS011;1321;48.690;9.022;2022-10-16T05:44:09;8.30;;;8.10;;
2622;SDS011;1321;48.690;9.022;2022-10-16T05:46:37;9.40;;;9.10;;
2622;SDS011;1321;48.690;9.022;2022-10-16T05:49:05;8.20;;;7.90;;
2622;SDS011;1321;48.690;9.022;2022-10-16T05:51:34;8.17;;;7.97;;
2622;SDS011;1321;48.690;9.022;2022-10-16T05:54:02;8.20;;;8.00;;
2622;SDS011;1321;48.690;9.022;2022-10-16T05:56:30;8.20;;;7.80;;
2622;SDS011;1321;48.690;9.022;2022-10-16T05:58:58;8.13;;;7.93;;
2622;SDS011;1321;48.690;9.022;2022-10-16T06:01:26;8.20;;;7.90;;
2622;SDS011;1321;48.690;9.022;2022-10-16T06:03:54;8.20;;;7.97;;
2622;SDS011;1321;48.690;9.022;2022-10-16T06:06:23;8.70;;;8.20;;
2622;SDS011;1321;48.690;9.022;2022-10-16T06:08:54;8.57;;;8.33;;
2622;SDS011;1321;48.690;9.022;2022-10-16T06:11:24;8.20;;;7.90;;
2622;SDS011;1321;48.690;9.022;2022-10-16T06:13:54;9.73;;;9.13;;
2622;SDS011;1321;48.690;9.022;2022-10-16T06:16:24;8.17;;;7.97;;
2622;SDS011;1321;48.690;9.022;2022-10-16T06:18:53;8.60;;;8.40;;
2622;SDS011;1321;48.690;9.022;2022-10-16T06:21:23;8.47;;;8.07;;
2622;SDS011;1321;48.690;9.022;2022-10-16T06:23:53;9.07;;;8.57;;
2622;SDS011;1321;48.690;9.022;2022-10-16T06:26:23;8.70;;;8.50;;
2622;SDS011;1321;48.690;9.022;2022-10-16T06:28:53;9.13;;;8.63;;
2622;SDS011;1321;48.690;9.022;2022-10-16T06:31:22;9.40;;;9.10;;
2622;SDS011;1321;48.690;9.022;2022-10-16T06:33:54;8.73;;;8.53;;
2622;SDS011;1321;48.690;9.022;2022-10-16T06:36:23;8.77;;;8.47;;
2622;SDS011;1321;48.690;9.022;2022-10-16T06:38:52;8.97;;;8.60;;
2622;SDS011;1321;48.690;9.022;2022-10-16T06:41:22;9.20;;;8.97;;
2622;SDS011;1321;48.690;9.022;2022-10-16T06:43:50;8.80;;;8.50;;
2622;SDS011;1321;48.690;9.022;2022-10-16T06:46:20;8.67;;;8.27;;
2622;SDS011;1321;48.690;9.022;2022-10-16T06:48:49;9.50;;;9.00;;
2622;SDS011;1321;48.690;9.022;2022-10-16T06:51:18;8.77;;;8.57;;
2622;SDS011;1321;48.690;9.022;2022-10-16T06:53:48;9.57;;;9.30;;
2622;SDS011;1321;48.690;9.022;2022-10-16T06:56:34;9.33;;;9.10;;
2622;SDS011;1321;48.690;9.022;2022-10-16T06:59:03;10.13;;;9.63;;
2622;SDS011;1321;48.690;9.022;2022-10-16T07:01:31;9.00;;;8.70;;
2622;SDS011;1321;48.690;9.022;2022-10-16T07:04:00;8.97;;;8.77;;
2622;SDS011;1321;48.690;9.022;2022-10-16T07:06:30;8.83;;;8.63;;
2622;SDS011;1321;48.690;9.022;2022-10-16T07:09:00;9.47;;;9.10;;
2622;SDS011;1321;48.690;9.022;2022-10-16T07:11:30;9.03;;;8.73;;
2622;SDS011;1321;48.690;9.022;2022-10-16T07:13:59;8.83;;;8.40;;
2622;SDS011;1321;48.690;9.022;2022-10-16T07:16:28;8.97;;;8.77;;
2622;SDS011;1321;48.690;9.022;2022-10-16T07:18:58;8.90;;;8.70;;
2622;SDS011;1321;48.690;9.022;2022-10-16T07:21:27;8.50;;;8.30;;
2622;SDS011;1321;48.690;9.022;2022-10-16T07:23:58;9.30;;;8.77;;
2622;SDS011;1321;48.690;9.022;2022-10-16T07:26:28;8.50;;;8.30;;
2622;SDS011;1321;48.690;9.022;2022-10-16T07:28:57;9.30;;;9.00;;
2622;SDS011;1321;48.690;9.022;2022-10-16T07:31:27;9.20;;;8.43;;
2622;SDS011;1321;48.690;9.022;2022-10-16T07:33:57;8.93;;;8.53;;
2622;SDS011;1321;48.690;9.022;2022-10-16T07:36:25;8.70;;;8.50;;
2622;SDS011;1321;48.690;9.022;2022-10-16T07:38:54;9.00;;;8.60;;
2622;SDS011;1321;48.690;9.022;2022-10-16T07:41:25;8.70;;;8.50;;
2622;SDS011;1321;48.690;9.022;2022-10-16T07:43:54;7.97;;;7.67;;
2622;SDS011;1321;48.690;9.022;2022-10-16T07:46:24;8.30;;;8.10;;
2622;SDS011;1321;48.690;9.022;2022-10-16T07:48:53;8.50;;;8.30;;
2622;SDS011;1321;48.690;9.022;2022-10-16T07:51:22;9.10;;;8.80;;
2622;SDS011;1321;48.690;9.022;2022-10-16T07:53:51;8.20;;;8.00;;
2622;SDS011;1321;48.690;9.022;2022-10-16T07:56:20;8.70;;;8.40;;
2622;SDS011;1321;48.690;9.022;2022-10-16T07:58:49;8.97;;;8.67;;
2622;SDS011;1321;48.690;9.022;2022-10-16T08:01:18;8.53;;;8.23;;
2622;SDS011;1321;48.690;9.022;2022-10-16T08:03:48;9.10;;;8.70;;
2622;SDS011;1321;48.690;9.022;2022-10-16T08:06:18;8.47;;;8.27;;
2622;SDS011;1321;48.690;9.022;2022-10-16T08:08:53;8.93;;;8.60;;
2622;SDS011;1321;48.690;9.022;2022-10-16T08:11:22;7.90;;;7.80;;
2622;SDS011;1321;48.690;9.022;2022-10-16T08:13:51;9.53;;;9.03;;
2622;SDS011;1321;48.690;9.022;2022-10-16T08:16:19;9.00;;;8.77;;
2622;SDS011;1321;48.690;9.022;2022-10-16T08:18:48;9.53;;;9.20;;
2622;SDS011;1321;48.690;9.022;2022-10-16T08:21:18;9.27;;;8.93;;
2622;SDS011;1321;48.690;9.022;2022-10-16T08:23:49;10.07;;;9.47;;
2622;SDS011;1321;48.690;9.022;2022-10-16T08:26:23;9.43;;;9.13;;
2622;SDS011;1321;48.690;9.022;2022-10-16T08:28:52;9.33;;;9.13;;
2622;SDS011;1321;48.690;9.022;2022-10-16T08:31:20;9.50;;;9.20;;
2622;SDS011;1321;48.690;9.022;2022-10-16T08:33:50;8.67;;;8.47;;
2622;SDS011;1321;48.690;9.022;2022-10-16T08:36:19;8.87;;;8.60;;
2622;SDS011;1321;48.690;9.022;2022-10-16T08:38:47;12.17;;;11.37;;
2622;SDS011;1321;48.690;9.022;2022-10-16T08:41:29;10.50;;;10.00;;
2622;SDS011;1321;48.690;9.022;2022-10-16T08:44:27;9.33;;;9.13;;
2622;SDS011;1321;48.690;9.022;2022-10-16T08:47:06;8.90;;;8.70;;
2622;SDS011;1321;48.690;9.022;2022-10-16T08:49:47;9.00;;;8.80;;
2622;SDS011;1321;48.690;9.022;2022-10-16T08:52:24;8.60;;;8.00;;
2622;SDS011;1321;48.690;9.022;2022-10-16T08:54:57;8.57;;;8.27;;
2622;SDS011;1321;48.690;9.022;2022-10-16T08:57:25;8.90;;;8.70;;
2622;SDS011;1321;48.690;9.022;2022-10-16T08:59:54;8.70;;;8.30;;
2622;SDS011;1321;48.690;9.022;2022-10-16T09:02:29;9.00;;;8.70;;
2622;SDS011;1321;48.690;9.022;2022-10-16T09:05:05;8.50;;;8.30;;
2622;SDS011;1321;48.690;9.022;2022-10-16T09:07:54;9.20;;;9.00;;
2622;SDS011;1321;48.690;9.022;2022-10-16T09:10:36;10.20;;;9.80;;
2622;SDS011;1321;48.690;9.022;2022-10-16T09:13:12;10.20;;;9.90;;
2622;SDS011;1321;48.690;9.022;2022-10-16T09:15:47;10.57;;;10.13;;
2622;SDS011;1321;48.690;9.022;2022-10-16T09:18:26;10.43;;;10.23;;
2622;SDS011;1321;48.690;9.022;2022-10-16T09:21:04;9.80;;;9.50;;
2622;SDS011;1321;48.690;9.022;2022-10-16T09:23:37;8.77;;;8.43;;
2622;SDS011;1321;48.690;9.022;2022-10-16T09:26:05;9.50;;;9.10;;
2622;SDS011;1321;48.690;9.022;2022-10-16T09:28:39;7.40;;;7.20;;
2622;SDS011;1321;48.690;9.022;2022-10-16T09:31:09;6.03;;;5.50;;
2622;SDS011;1321;48.690;9.022;2022-10-16T09:33:42;6.83;;;6.47;;
2622;SDS011;1321;48.690;9.022;2022-10-16T09:36:15;7.07;;;6.67;;
2622;SDS011;1321;48.690;9.022;2022-10-16T09:38:45;6.73;;;6.63;;
2622;SDS011;1321;48.690;9.022;2022-10-16T09:41:17;6.37;;;6.23;;
2622;SDS011;1321;48.690;9.022;2022-10-16T09:43:47;6.80;;;6.60;;
2622;SDS011;1321;48.690;9.022;2022-10-16T09:46:21;6.40;;;5.90;;
2622;SDS011;1321;48.690;9.022;2022-10-16T09:48:55;7.10;;;6.80;;
2622;SDS011;1321;48.690;9.022;2022-10-16T09:51:26;6.20;;;6.00;;
2622;SDS011;1321;48.690;9.022;2022-10-16T09:53:57;6.33;;;5.97;;
2622;SDS011;1321;48.690;9.022;2022-10-16T09:56:27;5.93;;;5.53;;
2622;SDS011;1321;48.690;9.022;2022-10-16T09:58:59;5.83;;;5.40;;
2622;SDS011;1321;48.690;9.022;2022-10-16T10:01:29;6.30;;;5.80;;
2622;SDS011;1321;48.690;9.022;2022-10-16T10:04:03;5.57;;;5.20;;
2622;SDS011;1321;48.690;9.022;2022-10-16T10:06:34;4.30;;;4.10;;
2622;SDS011;1321;48.690;9.022;2022-10-16T10:09:06;4.43;;;4.13;;
2622;SDS011;1321;48.690;9.022;2022-10-16T10:11:48;3.77;;;3.67;;
2622;SDS011;1321;48.690;9.022;2022-10-16T10:14:31;3.03;;;2.80;;
2622;SDS011;1321;48.690;9.022;2022-10-16T10:19:52;2.60;;;2.50;;
2622;SDS011;1321;48.690;9.022;2022-10-16T10:22:25;2.53;;;2.33;;
2622;SDS011;1321;48.690;9.022;2022-10-16T10:24:56;2.50;;;2.40;;
2622;SDS011;1321;48.690;9.022;2022-10-16T10:27:39;2.73;;;2.60;;
2622;SDS011;1321;48.690;9.022;2022-10-16T10:30:17;2.70;;;2.50;;
2622;SDS011;1321;48.690;9.022;2022-10-16T10:32:52;2.77;;;2.67;;
2622;SDS011;1321;48.690;9.022;2022-10-16T10:35:34;2.80;;;2.70;;
2622;SDS011;1321;48.690;9.022;2022-10-16T10:38:19;2.47;;;2.33;;
2622;SDS011;1321;48.690;9.022;2022-10-16T10:40:56;2.80;;;2.60;;
2622;SDS011;1321;48.690;9.022;2022-10-16T10:43:38;3.37;;;3.07;;
2622;SDS011;1321;48.690;9.022;2022-10-16T10:46:14;2.70;;;2.53;;
2622;SDS011;1321;48.690;9.022;2022-10-16T10:48:58;2.43;;;2.33;;
2622;SDS011;1321;48.690;9.022;2022-10-16T10:51:36;2.30;;;2.10;;
2622;SDS011;1321;48.690;9.022;2022-10-16T10:54:15;2.97;;;2.80;;
2622;SDS011;1321;48.690;9.022;2022-10-16T10:56:51;2.50;;;2.40;;
2622;SDS011;1321;48.690;9.022;2022-10-16T10:59:32;4.83;;;2.00;;
2622;SDS011;1321;48.690;9.022;2022-10-16T11:02:15;3.50;;;2.07;;
2622;SDS011;1321;48.690;9.022;2022-10-16T11:04:55;3.47;;;2.17;;
2622;SDS011;1321;48.690;9.022;2022-10-16T11:07:36;2.67;;;2.43;;
2622;SDS011;1321;48.690;9.022;2022-10-16T11:10:12;4.23;;;1.93;;
2622;SDS011;1321;48.690;9.022;2022-10-16T11:12:44;1.90;;;1.80;;
2622;SDS011;1321;48.690;9.022;2022-10-16T11:15:15;2.33;;;2.20;;
2622;SDS011;1321;48.690;9.022;2022-10-16T11:17:48;2.27;;;2.17;;
2622;SDS011;1321;48.690;9.022;2022-10-16T11:20:19;3.97;;;2.07;;
2622;SDS011;1321;48.690;9.022;2022-10-16T11:22:53;3.63;;;2.20;;
2622;SDS011;1321;48.690;9.022;2022-10-16T11:25:27;2.60;;;2.50;;
2622;SDS011;1321;48.690;9.022;2022-10-16T11:27:58;2.47;;;2.37;;
2622;SDS011;1321;48.690;9.022;2022-10-16T11:30:31;2.50;;;2.30;;
2622;SDS011;1321;48.690;9.022;2022-10-16T11:33:12;2.30;;;2.20;;
2622;SDS011;1321;48.690;9.022;2022-10-16T11:36:00;5.03;;;2.50;;
2622;SDS011;1321;48.690;9.022;2022-10-16T11:38:33;2.03;;;1.93;;
2622;SDS011;1321;48.690;9.022;2022-10-16T11:41:15;2.20;;;2.10;;
2622;SDS011;1321;48.690;9.022;2022-10-16T11:43:49;3.40;;;2.70;;
2622;SDS011;1321;48.690;9.022;2022-10-16T11:46:27;2.20;;;2.10;;
2622;SDS011;1321;48.690;9.022;2022-10-16T11:49:00;2.40;;;2.30;;
2622;SDS011;1321;48.690;9.022;2022-10-16T11:51:36;1.90;;;1.80;;
2622;SDS011;1321;48.690;9.022;2022-10-16T11:54:10;2.70;;;2.50;;
2622;SDS011;1321;48.690;9.022;2022-10-16T11:56:50;2.40;;;2.23;;
2622;SDS011;1321;48.690;9.022;2022-10-16T11:59:23;2.50;;;2.37;;
2622;SDS011;1321;48.690;9.022;2022-10-16T12:01:59;2.00;;;1.90;;
2622;SDS011;1321;48.690;9.022;2022-10-16T12:04:45;1.80;;;1.70;;
2622;SDS011;1321;48.690;9.022;2022-10-16T12:07:18;2.00;;;1.90;;
2622;SDS011;1321;48.690;9.022;2022-10-16T12:09:51;2.20;;;2.10;;
2622;SDS011;1321;48.690;9.022;2022-10-16T12:12:27;1.80;;;1.70;;
2622;SDS011;1321;48.690;9.022;2022-10-16T12:15:18;1.80;;;1.70;;
2622;SDS011;1321;48.690;9.022;2022-10-16T12:18:19;3.90;;;3.60;;
2622;SDS011;1321;48.690;9.022;2022-10-16T12:20:54;1.90;;;1.80;;
2622;SDS011;1321;48.690;9.022;2022-10-16T12:23:25;2.50;;;1.90;;
2622;SDS011;1321;48.690;9.022;2022-10-16T12:25:53;1.97;;;1.87;;
2622;SDS011;1321;48.690;9.022;2022-10-16T12:28:27;4.30;;;2.40;;
2622;SDS011;1321;48.690;9.022;2022-10-16T12:30:57;1.90;;;1.80;;
2622;SDS011;1321;48.690;9.022;2022-10-16T12:33:27;2.77;;;1.60;;
2622;SDS011;1321;48.690;9.022;2022-10-16T12:35:57;1.60;;;1.50;;
2622;SDS011;1321;48.690;9.022;2022-10-16T12:38:28;1.43;;;1.43;;
2622;SDS011;1321;48.690;9.022;2022-10-16T12:41:03;1.60;;;1.50;;
2622;SDS011;1321;48.690;9.022;2022-10-16T12:43:37;1.60;;;1.50;;
2622;SDS011;1321;48.690;9.022;2022-10-16T12:46:22;1.70;;;1.60;;
2622;SDS011;1321;48.690;9.022;2022-10-16T12:52:03;1.93;;;1.83;;
2622;SDS011;1321;48.690;9.022;2022-10-16T12:54:34;3.83;;;2.00;;
2622;SDS011;1321;48.690;9.022;2022-10-16T12:57:08;3.60;;;3.30;;
2622;SDS011;1321;48.690;9.022;2022-10-16T12:59:55;1.77;;;1.77;;
2622;SDS011;1321;48.690;9.022;2022-10-16T13:02:39;2.67;;;2.33;;
2622;SDS011;1321;48.690;9.022;2022-10-16T13:05:30;1.90;;;1.80;;
2622;SDS011;1321;48.690;9.022;2022-10-16T13:08:12;2.10;;;1.90;;
2622;SDS011;1321;48.690;9.022;2022-10-16T13:10:59;2.27;;;2.07;;
2622;SDS011;1321;48.690;9.022;2022-10-16T13:13:41;9.50;;;2.87;;
2622;SDS011;1321;48.690;9.022;2022-10-16T13:16:25;2.33;;;2.23;;
2622;SDS011;1321;48.690;9.022;2022-10-16T13:19:04;2.20;;;2.10;;
2622;SDS011;1321;48.690;9.022;2022-10-16T13:21:41;1.97;;;1.80;;
2622;SDS011;1321;48.690;9.022;2022-10-16T13:24:21;2.13;;;2.03;;
2622;SDS011;1321;48.690;9.022;2022-10-16T13:27:14;2.90;;;2.70;;
2622;SDS011;1321;48.690;9.022;2022-10-16T13:29:52;4.20;;;2.57;;
2622;SDS011;1321;48.690;9.022;2022-10-16T13:32:28;3.40;;;3.13;;
2622;SDS011;1321;48.690;9.022;2022-10-16T13:34:58;2.70;;;2.50;;
2622;SDS011;1321;48.690;9.022;2022-10-16T13:37:27;3.23;;;2.90;;
2622;SDS011;1321;48.690;9.022;2022-10-16T13:40:02;3.20;;;2.90;;
2622;SDS011;1321;48.690;9.022;2022-10-16T13:42:44;2.63;;;2.43;;
2622;SDS011;1321;48.690;9.022;2022-10-16T13:45:19;2.73;;;2.60;;
2622;SDS011;1321;48.690;9.022;2022-10-16T13:47:49;3.13;;;2.93;;
2622;SDS011;1321;48.690;9.022;2022-10-16T13:50:17;3.03;;;2.80;;
2622;SDS011;1321;48.690;9.022;2022-10-16T13:52:46;2.97;;;2.87;;
2622;SDS011;1321;48.690;9.022;2022-10-16T13:55:16;2.70;;;2.60;;
2622;SDS011;1321;48.690;9.022;2022-10-16T13:57:45;2.83;;;2.70;;
2622;SDS011;1321;48.690;9.022;2022-10-16T14:00:17;2.40;;;2.30;;
2622;SDS011;1321;48.690;9.022;2022-10-16T14:02:51;3.87;;;2.87;;
2622;SDS011;1321;48.690;9.022;2022-10-16T14:05:22;2.63;;;2.53;;
2622;SDS011;1321;48.690;9.022;2022-10-16T14:07:51;2.83;;;2.73;;
2622;SDS011;1321;48.690;9.022;2022-10-16T14:10:22;2.87;;;2.60;;
2622;SDS011;1321;48.690;9.022;2022-10-16T14:12:56;2.50;;;2.40;;
2622;SDS011;1321;48.690;9.022;2022-10-16T14:15:25;3.23;;;3.00;;
2622;SDS011;1321;48.690;9.022;2022-10-16T14:17:55;3.30;;;3.00;;
2622;SDS011;1321;48.690;9.022;2022-10-16T14:20:25;2.77;;;2.67;;
2622;SDS011;1321;48.690;9.022;2022-10-16T14:22:58;3.10;;;2.90;;
2622;SDS011;1321;48.690;9.022;2022-10-16T14:25:29;3.03;;;2.87;;
2622;SDS011;1321;48.690;9.022;2022-10-16T14:28:00;4.40;;;2.90;;
2622;SDS011;1321;48.690;9.022;2022-10-16T14:30:30;2.80;;;2.60;;
2622;SDS011;1321;48.690;9.022;2022-10-16T14:33:02;3.30;;;3.10;;
2622;SDS011;1321;48.690;9.022;2022-10-16T14:35:33;2.77;;;2.67;;
2622;SDS011;1321;48.690;9.022;2022-10-16T14:38:03;3.33;;;2.70;;
2622;SDS011;1321;48.690;9.022;2022-10-16T14:40:34;4.67;;;2.60;;
2622;SDS011;1321;48.690;9.022;2022-10-16T14:43:04;2.50;;;2.40;;
2622;SDS011;1321;48.690;9.022;2022-10-16T14:45:33;3.57;;;3.30;;
2622;SDS011;1321;48.690;9.022;2022-10-16T14:48:04;3.23;;;3.13;;
2622;SDS011;1321;48.690;9.022;2022-10-16T14:50:45;3.73;;;3.17;;
2622;SDS011;1321;48.690;9.022;2022-10-16T14:53:13;3.20;;;2.97;;
2622;SDS011;1321;48.690;9.022;2022-10-16T14:55:42;3.40;;;3.30;;
2622;SDS011;1321;48.690;9.022;2022-10-16T14:58:11;3.90;;;2.70;;
2622;SDS011;1321;48.690;9.022;2022-10-16T15:00:43;2.90;;;2.80;;
2622;SDS011;1321;48.690;9.022;2022-10-16T15:03:13;4.40;;;3.33;;
2622;SDS011;1321;48.690;9.022;2022-10-16T15:05:41;4.27;;;3.20;;
2622;SDS011;1321;48.690;9.022;2022-10-16T15:08:09;3.50;;;2.93;;
2622;SDS011;1321;48.690;9.022;2022-10-16T15:10:41;2.90;;;2.70;;
2622;SDS011;1321;48.690;9.022;2022-10-16T15:13:13;2.80;;;2.70;;
2622;SDS011;1321;48.690;9.022;2022-10-16T15:15:42;2.93;;;2.73;;
2622;SDS011;1321;48.690;9.022;2022-10-16T15:18:13;3.93;;;2.80;;
2622;SDS011;1321;48.690;9.022;2022-10-16T15:20:47;3.50;;;3.30;;
2622;SDS011;1321;48.690;9.022;2022-10-16T15:23:17;5.07;;;2.93;;
2622;SDS011;1321;48.690;9.022;2022-10-16T15:25:47;3.67;;;3.50;;
2622;SDS011;1321;48.690;9.022;2022-10-16T15:28:16;3.03;;;2.77;;
2622;SDS011;1321;48.690;9.022;2022-10-16T15:30:45;3.80;;;2.83;;
2622;SDS011;1321;48.690;9.022;2022-10-16T15:33:18;3.03;;;2.83;;
2622;SDS011;1321;48.690;9.022;2022-10-16T15:35:47;3.23;;;3.03;;
2622;SDS011;1321;48.690;9.022;2022-10-16T15:38:17;3.00;;;2.90;;
2622;SDS011;1321;48.690;9.022;2022-10-16T15:40:46;2.60;;;2.50;;
2622;SDS011;1321;48.690;9.022;2022-10-16T15:43:15;3.00;;;2.80;;
2622;SDS011;1321;48.690;9.022;2022-10-16T15:45:43;3.17;;;2.87;;
2622;SDS011;1321;48.690;9.022;2022-10-16T15:48:12;3.63;;;3.07;;
2622;SDS011;1321;48.690;9.022;2022-10-16T15:50:42;3.07;;;2.97;;